sensor_id;sensor_type;location;lat;lon;timestamp;temperature;humidity
44223;DHT22;29895;48.804;9.386;2023-09-19T00:01:43;18.00;99.90
44223;DHT22;29895;48.804;9.386;2023-09-19T00:04:12;18.00;99.90
44223;DHT22;29895;48.804;9.386;2023-09-19T00:06:38;17.90;99.90
44223;DHT22;29895;48.804;9.386;2023-09-19T00:09:04;17.90;99.90
44223;DHT22;29895;48.804;9.386;2023-09-19T00:11:30;17.80;99.90
44223;DHT22;29895;48.804;9.386;2023-09-19T00:13:57;17.90;99.90
44223;DHT22;29895;48.804;9.386;2023-09-19T00:16:26;17.90;99.90
44223;DHT22;29895;48.804;9.386;2023-09-19T00:18:52;17.90;99.90
44223;DHT22;29895;48.804;9.386;2023-09-19T00:21:18;17.80;99.90
44223;DHT22;29895;48.804;9.386;2023-09-19T00:23:44;17.80;99.90
44223;DHT22;29895;48.804;9.386;2023-09-19T00:26:10;17.70;99.90
44223;DHT22;29895;48.804;9.386;2023-09-19T00:28:36;17.80;99.90
44223;DHT22;29895;48.804;9.386;2023-09-19T00:31:01;17.70;99.90
44223;DHT22;29895;48.804;9.386;2023-09-19T00:33:28;17.70;99.90
44223;DHT22;29895;48.804;9.386;2023-09-19T00:35:56;17.70;99.90
44223;DHT22;29895;48.804;9.386;2023-09-19T00:38:23;17.70;99.90
44223;DHT22;29895;48.804;9.386;2023-09-19T00:40:53;17.70;99.90
44223;DHT22;29895;48.804;9.386;2023-09-19T00:43:19;17.70;99.90
44223;DHT22;29895;48.804;9.386;2023-09-19T00:45:48;17.70;99.90
44223;DHT22;29895;48.804;9.386;2023-09-19T00:48:15;17.70;99.90
44223;DHT22;29895;48.804;9.386;2023-09-19T00:50:43;17.70;99.90
44223;DHT22;29895;48.804;9.386;2023-09-19T00:53:09;17.70;99.90
44223;DHT22;29895;48.804;9.386;2023-09-19T00:55:38;17.70;99.90
44223;DHT22;29895;48.804;9.386;2023-09-19T00:58:04;17.70;99.90
44223;DHT22;29895;48.804;9.386;2023-09-19T01:00:33;17.70;99.90
44223;DHT22;29895;48.804;9.386;2023-09-19T01:03:00;17.70;99.90
44223;DHT22;29895;48.804;9.386;2023-09-19T01:05:29;17.70;99.90
44223;DHT22;29895;48.804;9.386;2023-09-19T01:07:57;17.80;99.90
44223;DHT22;29895;48.804;9.386;2023-09-19T01:10:24;17.70;99.90
44223;DHT22;29895;48.804;9.386;2023-09-19T01:13:54;17.70;99.90
44223;DHT22;29895;48.804;9.386;2023-09-19T01:19:11;17.80;99.90
44223;DHT22;29895;48.804;9.386;2023-09-19T01:30:26;17.90;99.90
44223;DHT22;29895;48.804;9.386;2023-09-19T01:32:53;17.90;99.90
44223;DHT22;29895;48.804;9.386;2023-09-19T01:35:19;17.90;99.90
44223;DHT22;29895;48.804;9.386;2023-09-19T01:37:45;17.90;99.90
44223;DHT22;29895;48.804;9.386;2023-09-19T01:40:14;17.80;99.90
44223;DHT22;29895;48.804;9.386;2023-09-19T01:42:57;17.80;99.90
44223;DHT22;29895;48.804;9.386;2023-09-19T01:47:52;17.90;99.90
44223;DHT22;29895;48.804;9.386;2023-09-19T01:50:43;17.90;99.90
44223;DHT22;29895;48.804;9.386;2023-09-19T01:55:54;17.90;99.90
44223;DHT22;29895;48.804;9.386;2023-09-19T02:01:22;17.90;99.90
44223;DHT22;29895;48.804;9.386;2023-09-19T02:03:50;17.90;99.90
44223;DHT22;29895;48.804;9.386;2023-09-19T02:06:16;17.90;99.90
44223;DHT22;29895;48.804;9.386;2023-09-19T02:08:43;17.80;99.90
44223;DHT22;29895;48.804;9.386;2023-09-19T02:11:08;17.90;99.90
44223;DHT22;29895;48.804;9.386;2023-09-19T02:13:34;17.90;99.90
44223;DHT22;29895;48.804;9.386;2023-09-19T02:16:00;17.90;99.90
44223;DHT22;29895;48.804;9.386;2023-09-19T02:18:25;17.80;99.90
44223;DHT22;29895;48.804;9.386;2023-09-19T02:20:53;17.80;99.90
44223;DHT22;29895;48.804;9.386;2023-09-19T02:23:20;17.80;99.90
44223;DHT22;29895;48.804;9.386;2023-09-19T02:25:54;17.70;99.90
44223;DHT22;29895;48.804;9.386;2023-09-19T02:28:20;17.80;99.90
44223;DHT22;29895;48.804;9.386;2023-09-19T02:30:48;17.80;99.90
44223;DHT22;29895;48.804;9.386;2023-09-19T02:33:14;17.70;99.90
44223;DHT22;29895;48.804;9.386;2023-09-19T02:35:40;17.70;99.90
44223;DHT22;29895;48.804;9.386;2023-09-19T02:38:06;17.60;99.90
44223;DHT22;29895;48.804;9.386;2023-09-19T02:40:33;17.60;99.90
44223;DHT22;29895;48.804;9.386;2023-09-19T02:43:01;17.60;99.90
44223;DHT22;29895;48.804;9.386;2023-09-19T02:45:27;17.50;99.90
44223;DHT22;29895;48.804;9.386;2023-09-19T02:47:53;17.50;99.90
44223;DHT22;29895;48.804;9.386;2023-09-19T02:50:20;17.50;99.90
44223;DHT22;29895;48.804;9.386;2023-09-19T02:52:47;17.40;99.90
44223;DHT22;29895;48.804;9.386;2023-09-19T02:55:17;17.40;99.90
44223;DHT22;29895;48.804;9.386;2023-09-19T02:57:52;17.30;99.90
44223;DHT22;29895;48.804;9.386;2023-09-19T03:00:21;17.30;99.90
44223;DHT22;29895;48.804;9.386;2023-09-19T03:02:56;17.30;99.90
44223;DHT22;29895;48.804;9.386;2023-09-19T03:05:22;17.20;99.90
44223;DHT22;29895;48.804;9.386;2023-09-19T03:07:51;17.20;99.90
44223;DHT22;29895;48.804;9.386;2023-09-19T03:10:21;17.20;99.90
44223;DHT22;29895;48.804;9.386;2023-09-19T03:12:47;17.20;99.90
44223;DHT22;29895;48.804;9.386;2023-09-19T03:15:14;17.10;99.90
44223;DHT22;29895;48.804;9.386;2023-09-19T03:17:46;17.10;99.90
44223;DHT22;29895;48.804;9.386;2023-09-19T03:20:17;17.10;99.90
44223;DHT22;29895;48.804;9.386;2023-09-19T03:22:46;17.20;99.90
44223;DHT22;29895;48.804;9.386;2023-09-19T03:25:12;17.20;99.90
44223;DHT22;29895;48.804;9.386;2023-09-19T03:27:39;17.30;99.90
44223;DHT22;29895;48.804;9.386;2023-09-19T03:30:05;17.40;99.90
44223;DHT22;29895;48.804;9.386;2023-09-19T03:32:43;17.40;99.90
44223;DHT22;29895;48.804;9.386;2023-09-19T03:35:09;17.40;99.90
44223;DHT22;29895;48.804;9.386;2023-09-19T03:37:34;17.40;99.90
44223;DHT22;29895;48.804;9.386;2023-09-19T03:40:00;17.50;99.90
44223;DHT22;29895;48.804;9.386;2023-09-19T03:42:30;17.50;99.90
44223;DHT22;29895;48.804;9.386;2023-09-19T03:44:56;17.40;99.90
44223;DHT22;29895;48.804;9.386;2023-09-19T03:47:22;17.40;99.90
44223;DHT22;29895;48.804;9.386;2023-09-19T03:49:48;17.50;99.90
44223;DHT22;29895;48.804;9.386;2023-09-19T03:52:13;17.50;99.90
44223;DHT22;29895;48.804;9.386;2023-09-19T03:54:41;17.50;99.90
44223;DHT22;29895;48.804;9.386;2023-09-19T03:57:06;17.50;99.90
44223;DHT22;29895;48.804;9.386;2023-09-19T03:59:32;17.50;99.90
44223;DHT22;29895;48.804;9.386;2023-09-19T04:01:58;17.50;99.90
44223;DHT22;29895;48.804;9.386;2023-09-19T04:04:24;17.30;99.90
44223;DHT22;29895;48.804;9.386;2023-09-19T04:06:53;17.40;99.90
44223;DHT22;29895;48.804;9.386;2023-09-19T04:09:18;17.30;99.90
44223;DHT22;29895;48.804;9.386;2023-09-19T04:11:44;17.40;99.90
44223;DHT22;29895;48.804;9.386;2023-09-19T04:14:10;17.30;99.90
44223;DHT22;29895;48.804;9.386;2023-09-19T04:16:35;17.20;99.90
44223;DHT22;29895;48.804;9.386;2023-09-19T04:19:01;17.20;99.90
44223;DHT22;29895;48.804;9.386;2023-09-19T04:21:28;17.20;99.90
44223;DHT22;29895;48.804;9.386;2023-09-19T04:23:54;17.20;99.90
44223;DHT22;29895;48.804;9.386;2023-09-19T04:26:20;17.10;99.90
44223;DHT22;29895;48.804;9.386;2023-09-19T04:28:47;17.10;99.90
44223;DHT22;29895;48.804;9.386;2023-09-19T04:31:12;17.10;99.90
44223;DHT22;29895;48.804;9.386;2023-09-19T04:33:39;17.10;99.90
44223;DHT22;29895;48.804;9.386;2023-09-19T04:36:05;17.10;99.90
44223;DHT22;29895;48.804;9.386;2023-09-19T04:38:33;17.00;99.90
44223;DHT22;29895;48.804;9.386;2023-09-19T04:40:58;17.10;99.90
44223;DHT22;29895;48.804;9.386;2023-09-19T04:43:25;17.10;99.90
44223;DHT22;29895;48.804;9.386;2023-09-19T04:45:50;17.10;99.90
44223;DHT22;29895;48.804;9.386;2023-09-19T04:48:19;17.20;99.90
44223;DHT22;29895;48.804;9.386;2023-09-19T04:50:45;17.10;99.90
44223;DHT22;29895;48.804;9.386;2023-09-19T04:53:11;17.10;99.90
44223;DHT22;29895;48.804;9.386;2023-09-19T04:55:36;17.10;99.90
44223;DHT22;29895;48.804;9.386;2023-09-19T04:58:02;17.10;99.90
44223;DHT22;29895;48.804;9.386;2023-09-19T05:00:28;17.10;99.90
44223;DHT22;29895;48.804;9.386;2023-09-19T05:02:57;17.10;99.90
44223;DHT22;29895;48.804;9.386;2023-09-19T05:05:23;17.20;99.90
44223;DHT22;29895;48.804;9.386;2023-09-19T05:07:50;17.20;99.90
44223;DHT22;29895;48.804;9.386;2023-09-19T05:10:17;17.10;99.90
44223;DHT22;29895;48.804;9.386;2023-09-19T05:12:46;17.20;99.90
44223;DHT22;29895;48.804;9.386;2023-09-19T05:15:14;17.20;99.90
44223;DHT22;29895;48.804;9.386;2023-09-19T05:17:47;17.20;99.90
44223;DHT22;29895;48.804;9.386;2023-09-19T05:20:13;17.20;99.90
44223;DHT22;29895;48.804;9.386;2023-09-19T05:22:42;17.10;99.90
44223;DHT22;29895;48.804;9.386;2023-09-19T05:25:09;17.00;99.90
44223;DHT22;29895;48.804;9.386;2023-09-19T05:27:35;16.90;99.90
44223;DHT22;29895;48.804;9.386;2023-09-19T05:30:01;16.70;99.90
44223;DHT22;29895;48.804;9.386;2023-09-19T05:32:26;16.60;99.90
44223;DHT22;29895;48.804;9.386;2023-09-19T05:34:52;16.50;99.90
44223;DHT22;29895;48.804;9.386;2023-09-19T05:37:22;16.50;99.90
44223;DHT22;29895;48.804;9.386;2023-09-19T05:39:49;16.40;99.90
44223;DHT22;29895;48.804;9.386;2023-09-19T05:42:14;16.30;99.90
44223;DHT22;29895;48.804;9.386;2023-09-19T05:44:40;16.30;99.90
44223;DHT22;29895;48.804;9.386;2023-09-19T05:47:05;16.30;99.90
44223;DHT22;29895;48.804;9.386;2023-09-19T05:49:37;16.30;99.90
44223;DHT22;29895;48.804;9.386;2023-09-19T05:52:06;16.40;99.90
44223;DHT22;29895;48.804;9.386;2023-09-19T05:54:32;16.40;99.90
44223;DHT22;29895;48.804;9.386;2023-09-19T05:57:00;16.40;99.90
44223;DHT22;29895;48.804;9.386;2023-09-19T05:59:25;16.40;99.90
44223;DHT22;29895;48.804;9.386;2023-09-19T06:01:51;16.40;99.90
44223;DHT22;29895;48.804;9.386;2023-09-19T06:04:17;16.30;99.90
44223;DHT22;29895;48.804;9.386;2023-09-19T06:06:44;16.10;99.90
44223;DHT22;29895;48.804;9.386;2023-09-19T06:09:10;16.00;99.90
44223;DHT22;29895;48.804;9.386;2023-09-19T06:11:36;15.90;99.90
44223;DHT22;29895;48.804;9.386;2023-09-19T06:14:03;15.80;99.90
44223;DHT22;29895;48.804;9.386;2023-09-19T06:16:29;15.80;99.90
44223;DHT22;29895;48.804;9.386;2023-09-19T06:18:55;15.80;99.90
44223;DHT22;29895;48.804;9.386;2023-09-19T06:21:23;15.70;99.90
44223;DHT22;29895;48.804;9.386;2023-09-19T06:23:49;15.60;99.90
44223;DHT22;29895;48.804;9.386;2023-09-19T06:26:15;15.40;99.90
44223;DHT22;29895;48.804;9.386;2023-09-19T06:28:40;15.40;99.90
44223;DHT22;29895;48.804;9.386;2023-09-19T06:31:08;15.20;99.90
44223;DHT22;29895;48.804;9.386;2023-09-19T06:33:36;15.20;99.90
44223;DHT22;29895;48.804;9.386;2023-09-19T06:36:05;15.10;99.90
44223;DHT22;29895;48.804;9.386;2023-09-19T06:38:31;15.10;99.90
44223;DHT22;29895;48.804;9.386;2023-09-19T06:40:59;15.10;99.90
44223;DHT22;29895;48.804;9.386;2023-09-19T06:43:26;15.20;99.90
44223;DHT22;29895;48.804;9.386;2023-09-19T06:45:53;15.20;99.90
44223;DHT22;29895;48.804;9.386;2023-09-19T06:48:20;15.30;99.90
44223;DHT22;29895;48.804;9.386;2023-09-19T06:50:47;15.40;99.90
44223;DHT22;29895;48.804;9.386;2023-09-19T06:53:13;15.50;99.90
44223;DHT22;29895;48.804;9.386;2023-09-19T06:55:39;15.60;99.90
44223;DHT22;29895;48.804;9.386;2023-09-19T06:58:06;15.70;99.90
44223;DHT22;29895;48.804;9.386;2023-09-19T07:00:31;15.80;99.90
44223;DHT22;29895;48.804;9.386;2023-09-19T07:03:04;15.90;99.90
44223;DHT22;29895;48.804;9.386;2023-09-19T07:05:36;16.00;99.90
44223;DHT22;29895;48.804;9.386;2023-09-19T07:08:03;16.20;99.90
44223;DHT22;29895;48.804;9.386;2023-09-19T07:10:29;16.40;99.90
44223;DHT22;29895;48.804;9.386;2023-09-19T07:13:00;16.60;99.90
44223;DHT22;29895;48.804;9.386;2023-09-19T07:15:27;16.80;99.90
44223;DHT22;29895;48.804;9.386;2023-09-19T07:17:53;16.90;99.90
44223;DHT22;29895;48.804;9.386;2023-09-19T07:20:20;17.00;99.90
44223;DHT22;29895;48.804;9.386;2023-09-19T07:22:46;17.10;99.90
44223;DHT22;29895;48.804;9.386;2023-09-19T07:25:12;17.30;99.90
44223;DHT22;29895;48.804;9.386;2023-09-19T07:27:40;17.50;99.90
44223;DHT22;29895;48.804;9.386;2023-09-19T07:30:07;17.70;99.90
44223;DHT22;29895;48.804;9.386;2023-09-19T07:32:33;17.70;99.90
44223;DHT22;29895;48.804;9.386;2023-09-19T07:35:02;17.80;99.90
44223;DHT22;29895;48.804;9.386;2023-09-19T07:37:29;17.90;99.90
44223;DHT22;29895;48.804;9.386;2023-09-19T07:39:56;18.00;99.90
44223;DHT22;29895;48.804;9.386;2023-09-19T07:42:22;18.10;99.90
44223;DHT22;29895;48.804;9.386;2023-09-19T07:44:48;18.00;99.90
44223;DHT22;29895;48.804;9.386;2023-09-19T07:47:16;17.90;99.90
44223;DHT22;29895;48.804;9.386;2023-09-19T07:49:42;17.90;99.90
44223;DHT22;29895;48.804;9.386;2023-09-19T07:52:08;18.00;99.90
44223;DHT22;29895;48.804;9.386;2023-09-19T07:54:35;18.10;99.90
44223;DHT22;29895;48.804;9.386;2023-09-19T07:57:01;18.20;99.90
44223;DHT22;29895;48.804;9.386;2023-09-19T07:59:27;18.40;99.90
44223;DHT22;29895;48.804;9.386;2023-09-19T08:01:53;18.50;99.90
44223;DHT22;29895;48.804;9.386;2023-09-19T08:04:19;18.80;99.90
44223;DHT22;29895;48.804;9.386;2023-09-19T08:06:45;19.00;99.90
44223;DHT22;29895;48.804;9.386;2023-09-19T08:09:11;19.10;99.90
44223;DHT22;29895;48.804;9.386;2023-09-19T08:11:39;19.20;99.90
44223;DHT22;29895;48.804;9.386;2023-09-19T08:14:05;19.30;99.90
44223;DHT22;29895;48.804;9.386;2023-09-19T08:16:33;19.30;99.90
44223;DHT22;29895;48.804;9.386;2023-09-19T08:18:58;19.30;99.90
44223;DHT22;29895;48.804;9.386;2023-09-19T08:21:24;19.40;99.90
44223;DHT22;29895;48.804;9.386;2023-09-19T08:23:51;19.50;99.90
44223;DHT22;29895;48.804;9.386;2023-09-19T08:26:16;19.60;99.90
44223;DHT22;29895;48.804;9.386;2023-09-19T08:28:42;19.60;99.90
44223;DHT22;29895;48.804;9.386;2023-09-19T08:31:08;19.60;99.90
44223;DHT22;29895;48.804;9.386;2023-09-19T08:33:35;19.80;99.90
44223;DHT22;29895;48.804;9.386;2023-09-19T08:36:04;19.80;99.90
44223;DHT22;29895;48.804;9.386;2023-09-19T08:38:34;20.00;99.90
44223;DHT22;29895;48.804;9.386;2023-09-19T08:41:04;19.90;99.90
44223;DHT22;29895;48.804;9.386;2023-09-19T08:43:30;20.00;99.90
44223;DHT22;29895;48.804;9.386;2023-09-19T08:46:11;20.00;99.90
44223;DHT22;29895;48.804;9.386;2023-09-19T08:48:46;20.10;99.90
44223;DHT22;29895;48.804;9.386;2023-09-19T08:51:20;20.20;99.90
44223;DHT22;29895;48.804;9.386;2023-09-19T08:54:06;20.20;99.90
44223;DHT22;29895;48.804;9.386;2023-09-19T08:56:33;20.40;99.90
44223;DHT22;29895;48.804;9.386;2023-09-19T08:59:06;20.60;99.90
44223;DHT22;29895;48.804;9.386;2023-09-19T09:01:35;20.40;99.90
44223;DHT22;29895;48.804;9.386;2023-09-19T09:04:02;20.40;99.90
44223;DHT22;29895;48.804;9.386;2023-09-19T09:06:28;20.30;99.90
44223;DHT22;29895;48.804;9.386;2023-09-19T09:08:55;20.20;99.90
44223;DHT22;29895;48.804;9.386;2023-09-19T09:11:21;20.30;99.90
44223;DHT22;29895;48.804;9.386;2023-09-19T09:13:47;20.40;99.90
44223;DHT22;29895;48.804;9.386;2023-09-19T09:16:14;20.40;99.90
44223;DHT22;29895;48.804;9.386;2023-09-19T09:18:42;20.50;99.90
44223;DHT22;29895;48.804;9.386;2023-09-19T09:21:10;20.70;99.90
44223;DHT22;29895;48.804;9.386;2023-09-19T09:23:36;20.70;99.90
44223;DHT22;29895;48.804;9.386;2023-09-19T09:26:01;20.90;99.90
44223;DHT22;29895;48.804;9.386;2023-09-19T09:28:34;20.80;99.90
44223;DHT22;29895;48.804;9.386;2023-09-19T09:31:01;20.80;99.90
44223;DHT22;29895;48.804;9.386;2023-09-19T09:33:34;20.60;99.90
44223;DHT22;29895;48.804;9.386;2023-09-19T09:36:02;20.70;99.90
44223;DHT22;29895;48.804;9.386;2023-09-19T09:38:45;20.80;99.90
44223;DHT22;29895;48.804;9.386;2023-09-19T09:41:12;21.00;99.90
44223;DHT22;29895;48.804;9.386;2023-09-19T09:43:42;21.30;99.90
44223;DHT22;29895;48.804;9.386;2023-09-19T09:46:18;21.60;99.90
44223;DHT22;29895;48.804;9.386;2023-09-19T09:49:03;21.80;99.90
44223;DHT22;29895;48.804;9.386;2023-09-19T09:52:02;21.70;99.90
44223;DHT22;29895;48.804;9.386;2023-09-19T09:54:33;21.50;99.90
44223;DHT22;29895;48.804;9.386;2023-09-19T09:57:03;21.50;99.90
44223;DHT22;29895;48.804;9.386;2023-09-19T09:59:54;21.40;99.90
44223;DHT22;29895;48.804;9.386;2023-09-19T10:02:35;21.30;99.90
44223;DHT22;29895;48.804;9.386;2023-09-19T10:05:13;21.30;99.90
44223;DHT22;29895;48.804;9.386;2023-09-19T10:07:56;21.30;99.90
44223;DHT22;29895;48.804;9.386;2023-09-19T10:10:33;21.30;99.90
44223;DHT22;29895;48.804;9.386;2023-09-19T10:13:10;21.40;99.90
44223;DHT22;29895;48.804;9.386;2023-09-19T10:15:44;21.60;99.90
44223;DHT22;29895;48.804;9.386;2023-09-19T10:18:20;21.70;99.90
44223;DHT22;29895;48.804;9.386;2023-09-19T10:20:46;21.80;99.90
44223;DHT22;29895;48.804;9.386;2023-09-19T10:23:13;21.90;99.90
44223;DHT22;29895;48.804;9.386;2023-09-19T10:25:43;21.90;99.90
44223;DHT22;29895;48.804;9.386;2023-09-19T10:28:13;22.00;99.90
44223;DHT22;29895;48.804;9.386;2023-09-19T10:30:43;22.10;99.90
44223;DHT22;29895;48.804;9.386;2023-09-19T10:33:11;22.00;99.90
44223;DHT22;29895;48.804;9.386;2023-09-19T10:35:48;22.00;99.90
44223;DHT22;29895;48.804;9.386;2023-09-19T10:38:17;21.90;99.90
44223;DHT22;29895;48.804;9.386;2023-09-19T10:40:53;21.80;99.90
44223;DHT22;29895;48.804;9.386;2023-09-19T10:43:20;21.90;99.90
44223;DHT22;29895;48.804;9.386;2023-09-19T10:45:48;22.10;99.90
44223;DHT22;29895;48.804;9.386;2023-09-19T10:48:18;22.30;99.90
44223;DHT22;29895;48.804;9.386;2023-09-19T10:50:52;22.50;99.90
44223;DHT22;29895;48.804;9.386;2023-09-19T10:53:20;22.40;99.90
44223;DHT22;29895;48.804;9.386;2023-09-19T10:55:53;22.20;99.90
44223;DHT22;29895;48.804;9.386;2023-09-19T10:58:31;21.90;99.90
44223;DHT22;29895;48.804;9.386;2023-09-19T11:01:04;21.60;99.90
44223;DHT22;29895;48.804;9.386;2023-09-19T11:03:41;21.60;99.90
44223;DHT22;29895;48.804;9.386;2023-09-19T11:06:18;21.70;99.90
44223;DHT22;29895;48.804;9.386;2023-09-19T11:09:03;21.60;99.90
44223;DHT22;29895;48.804;9.386;2023-09-19T11:11:47;21.50;99.90
44223;DHT22;29895;48.804;9.386;2023-09-19T11:17:38;21.40;99.90
44223;DHT22;29895;48.804;9.386;2023-09-19T11:30:37;21.50;99.90
44223;DHT22;29895;48.804;9.386;2023-09-19T11:36:13;22.00;99.90
44223;DHT22;29895;48.804;9.386;2023-09-19T11:44:37;22.20;99.90
44223;DHT22;29895;48.804;9.386;2023-09-19T11:46:54;22.20;99.90
44223;DHT22;29895;48.804;9.386;2023-09-19T11:49:30;22.30;99.90
44223;DHT22;29895;48.804;9.386;2023-09-19T11:51:58;22.30;99.90
44223;DHT22;29895;48.804;9.386;2023-09-19T11:54:30;22.30;99.90
44223;DHT22;29895;48.804;9.386;2023-09-19T11:57:00;22.20;99.90
44223;DHT22;29895;48.804;9.386;2023-09-19T11:59:28;22.10;99.90
44223;DHT22;29895;48.804;9.386;2023-09-19T12:02:05;22.10;99.90
44223;DHT22;29895;48.804;9.386;2023-09-19T12:04:41;22.00;99.90
44223;DHT22;29895;48.804;9.386;2023-09-19T12:07:10;21.90;99.90
44223;DHT22;29895;48.804;9.386;2023-09-19T12:09:50;21.80;99.90
44223;DHT22;29895;48.804;9.386;2023-09-19T12:12:27;21.90;99.90
44223;DHT22;29895;48.804;9.386;2023-09-19T12:14:54;22.10;99.90
44223;DHT22;29895;48.804;9.386;2023-09-19T12:17:22;22.20;99.90
44223;DHT22;29895;48.804;9.386;2023-09-19T12:19:53;22.30;99.90
44223;DHT22;29895;48.804;9.386;2023-09-19T12:22:18;22.20;99.90
44223;DHT22;29895;48.804;9.386;2023-09-19T12:24:46;22.20;99.90
44223;DHT22;29895;48.804;9.386;2023-09-19T12:27:12;22.10;99.90
44223;DHT22;29895;48.804;9.386;2023-09-19T12:29:46;22.20;99.90
44223;DHT22;29895;48.804;9.386;2023-09-19T12:32:14;22.20;99.90
44223;DHT22;29895;48.804;9.386;2023-09-19T12:34:42;22.40;99.90
44223;DHT22;29895;48.804;9.386;2023-09-19T12:37:14;22.50;99.90
44223;DHT22;29895;48.804;9.386;2023-09-19T12:40:04;22.50;99.90
44223;DHT22;29895;48.804;9.386;2023-09-19T12:42:45;22.40;99.90
44223;DHT22;29895;48.804;9.386;2023-09-19T12:45:12;22.30;99.90
44223;DHT22;29895;48.804;9.386;2023-09-19T12:47:40;22.20;99.90
44223;DHT22;29895;48.804;9.386;2023-09-19T12:50:26;22.20;99.90
44223;DHT22;29895;48.804;9.386;2023-09-19T12:52:55;22.10;99.90
44223;DHT22;29895;48.804;9.386;2023-09-19T12:55:27;22.10;99.90
44223;DHT22;29895;48.804;9.386;2023-09-19T13:00:21;22.10;99.90
44223;DHT22;29895;48.804;9.386;2023-09-19T13:05:56;22.10;99.90
44223;DHT22;29895;48.804;9.386;2023-09-19T13:08:24;22.10;99.90
44223;DHT22;29895;48.804;9.386;2023-09-19T13:11:17;22.10;99.90
44223;DHT22;29895;48.804;9.386;2023-09-19T13:16:15;22.10;99.90
44223;DHT22;29895;48.804;9.386;2023-09-19T13:18:47;22.10;99.90
44223;DHT22;29895;48.804;9.386;2023-09-19T13:21:14;22.30;99.90
44223;DHT22;29895;48.804;9.386;2023-09-19T13:23:56;22.40;99.90
44223;DHT22;29895;48.804;9.386;2023-09-19T13:26:41;22.50;99.90
44223;DHT22;29895;48.804;9.386;2023-09-19T13:29:07;22.70;99.90
44223;DHT22;29895;48.804;9.386;2023-09-19T13:31:32;22.90;99.90
44223;DHT22;29895;48.804;9.386;2023-09-19T13:33:58;23.00;99.90
44223;DHT22;29895;48.804;9.386;2023-09-19T13:36:23;23.00;99.90
44223;DHT22;29895;48.804;9.386;2023-09-19T13:38:49;23.00;99.90
44223;DHT22;29895;48.804;9.386;2023-09-19T13:41:15;22.90;99.90
44223;DHT22;29895;48.804;9.386;2023-09-19T13:43:40;22.80;99.90
44223;DHT22;29895;48.804;9.386;2023-09-19T13:46:06;22.70;99.90
44223;DHT22;29895;48.804;9.386;2023-09-19T13:48:40;22.60;99.90
44223;DHT22;29895;48.804;9.386;2023-09-19T13:51:06;22.50;99.90
44223;DHT22;29895;48.804;9.386;2023-09-19T13:53:31;22.40;99.90
44223;DHT22;29895;48.804;9.386;2023-09-19T13:55:57;22.40;99.90
44223;DHT22;29895;48.804;9.386;2023-09-19T13:58:23;22.40;99.90
44223;DHT22;29895;48.804;9.386;2023-09-19T14:00:49;22.40;99.90
44223;DHT22;29895;48.804;9.386;2023-09-19T14:03:15;22.40;99.90
44223;DHT22;29895;48.804;9.386;2023-09-19T14:05:40;22.40;99.90
44223;DHT22;29895;48.804;9.386;2023-09-19T14:08:08;22.50;99.90
44223;DHT22;29895;48.804;9.386;2023-09-19T14:10:33;22.60;99.90
44223;DHT22;29895;48.804;9.386;2023-09-19T14:13:00;22.50;99.90
44223;DHT22;29895;48.804;9.386;2023-09-19T14:15:27;22.50;99.90
44223;DHT22;29895;48.804;9.386;2023-09-19T14:17:57;22.50;99.90
44223;DHT22;29895;48.804;9.386;2023-09-19T14:20:22;22.50;99.90
44223;DHT22;29895;48.804;9.386;2023-09-19T14:22:48;22.50;99.90
44223;DHT22;29895;48.804;9.386;2023-09-19T14:25:14;22.50;99.90
44223;DHT22;29895;48.804;9.386;2023-09-19T14:27:40;22.60;99.90
44223;DHT22;29895;48.804;9.386;2023-09-19T14:30:07;22.70;99.90
44223;DHT22;29895;48.804;9.386;2023-09-19T14:32:34;22.70;99.90
44223;DHT22;29895;48.804;9.386;2023-09-19T14:35:02;22.80;99.90
44223;DHT22;29895;48.804;9.386;2023-09-19T14:37:27;22.80;99.90
44223;DHT22;29895;48.804;9.386;2023-09-19T14:39:53;22.80;99.90
44223;DHT22;29895;48.804;9.386;2023-09-19T14:42:19;22.80;99.90
44223;DHT22;29895;48.804;9.386;2023-09-19T14:44:45;22.70;99.90
44223;DHT22;29895;48.804;9.386;2023-09-19T14:47:12;22.60;99.90
44223;DHT22;29895;48.804;9.386;2023-09-19T14:49:38;22.60;99.90
44223;DHT22;29895;48.804;9.386;2023-09-19T14:52:07;22.60;99.90
44223;DHT22;29895;48.804;9.386;2023-09-19T14:54:33;22.50;99.90
44223;DHT22;29895;48.804;9.386;2023-09-19T14:57:00;22.60;99.90
44223;DHT22;29895;48.804;9.386;2023-09-19T14:59:34;22.70;99.90
44223;DHT22;29895;48.804;9.386;2023-09-19T15:02:06;22.80;99.90
44223;DHT22;29895;48.804;9.386;2023-09-19T15:04:33;22.80;99.90
44223;DHT22;29895;48.804;9.386;2023-09-19T15:06:59;22.90;99.90
44223;DHT22;29895;48.804;9.386;2023-09-19T15:09:25;22.90;99.90
44223;DHT22;29895;48.804;9.386;2023-09-19T15:11:55;22.80;99.90
44223;DHT22;29895;48.804;9.386;2023-09-19T15:14:24;22.80;99.90
44223;DHT22;29895;48.804;9.386;2023-09-19T15:16:50;22.70;99.90
44223;DHT22;29895;48.804;9.386;2023-09-19T15:19:16;22.60;99.90
44223;DHT22;29895;48.804;9.386;2023-09-19T15:21:43;22.50;99.90
44223;DHT22;29895;48.804;9.386;2023-09-19T15:24:09;22.40;99.90
44223;DHT22;29895;48.804;9.386;2023-09-19T15:26:37;22.30;99.90
44223;DHT22;29895;48.804;9.386;2023-09-19T15:29:06;22.30;99.90
44223;DHT22;29895;48.804;9.386;2023-09-19T15:31:33;22.20;99.90
44223;DHT22;29895;48.804;9.386;2023-09-19T15:33:58;22.20;99.90
44223;DHT22;29895;48.804;9.386;2023-09-19T15:36:24;22.20;99.90
44223;DHT22;29895;48.804;9.386;2023-09-19T15:38:57;22.30;99.90
44223;DHT22;29895;48.804;9.386;2023-09-19T15:41:24;22.30;99.90
44223;DHT22;29895;48.804;9.386;2023-09-19T15:43:50;22.20;99.90
44223;DHT22;29895;48.804;9.386;2023-09-19T15:46:15;22.30;99.90
44223;DHT22;29895;48.804;9.386;2023-09-19T15:48:42;22.30;99.90
44223;DHT22;29895;48.804;9.386;2023-09-19T15:51:08;22.30;99.90
44223;DHT22;29895;48.804;9.386;2023-09-19T15:53:43;22.30;99.90
44223;DHT22;29895;48.804;9.386;2023-09-19T15:56:09;22.30;99.90
44223;DHT22;29895;48.804;9.386;2023-09-19T15:58:36;22.30;99.90
44223;DHT22;29895;48.804;9.386;2023-09-19T16:01:08;22.30;99.90
44223;DHT22;29895;48.804;9.386;2023-09-19T16:03:38;22.30;99.90
44223;DHT22;29895;48.804;9.386;2023-09-19T16:06:14;22.20;99.90
44223;DHT22;29895;48.804;9.386;2023-09-19T16:08:45;22.10;99.90
44223;DHT22;29895;48.804;9.386;2023-09-19T16:11:12;22.10;99.90
44223;DHT22;29895;48.804;9.386;2023-09-19T16:13:39;22.00;99.90
44223;DHT22;29895;48.804;9.386;2023-09-19T16:16:09;21.90;99.90
44223;DHT22;29895;48.804;9.386;2023-09-19T16:18:39;21.90;99.90
44223;DHT22;29895;48.804;9.386;2023-09-19T16:21:06;21.80;99.90
44223;DHT22;29895;48.804;9.386;2023-09-19T16:23:33;21.80;99.90
44223;DHT22;29895;48.804;9.386;2023-09-19T16:26:06;21.70;99.90
44223;DHT22;29895;48.804;9.386;2023-09-19T16:28:39;21.70;99.90
44223;DHT22;29895;48.804;9.386;2023-09-19T16:31:06;21.60;99.90